メインページ
METAR-TAF:

METAR-TAF

空港 :

ミルトン, マサチューセッツ州, アメリカ合衆国

緯度: 42-12-44N, 経度: 071-06-53W, 海抜: 192m

現時点の気象観測

当レポートは37分前の05:51(UTC)に作成
北東の風 18kt、最大29ktの突風を伴う
気温 4°C
湿度 93%
気圧 1012 hPa

METAR: KMQE 040551Z AUTO 04018G29KT 04/03 A2988 RMK AO1 PK WND 03032/0518 SLP132 P0013 60054 T00390033 10050 20039 53013

時間: 02:28 (06:28 UTC)


TAF: 見つかりません

4,000以上の空港の気象観測と天気予報(METAR報とTAF報)

利用可能な観測所は地図上に黄色い丸と赤い丸で示す。

丸の上にカーソルを重ねると観測所名を参照できる。

次にクリックすると気象観測と天気予報を参照できる。

マップの切り替え:黒色「×」印の緑ボタンをクリックして拡大、「-」印の緑ボタンをクリックして縮小、緑色の三角印をクリックして隣りの地図に切り替え


METAR-TAF: